sensor_id;sensor_type;location;lat;lon;timestamp;P1;durP1;ratioP1;P2;durP2;ratioP2
51838;SDS011;37886;53.174;6.368;2022-12-18T00:00:58;193.68;;;63.70;;
51838;SDS011;37886;53.174;6.368;2022-12-18T00:03:24;180.57;;;60.17;;
51838;SDS011;37886;53.174;6.368;2022-12-18T00:05:51;177.90;;;55.72;;
51838;SDS011;37886;53.174;6.368;2022-12-18T00:08:17;184.77;;;59.95;;
51838;SDS011;37886;53.174;6.368;2022-12-18T00:10:44;164.25;;;53.20;;
51838;SDS011;37886;53.174;6.368;2022-12-18T00:13:10;209.68;;;70.35;;
51838;SDS011;37886;53.174;6.368;2022-12-18T00:15:37;191.00;;;61.53;;
51838;SDS011;37886;53.174;6.368;2022-12-18T00:18:04;198.75;;;61.47;;
51838;SDS011;37886;53.174;6.368;2022-12-18T00:20:30;200.35;;;62.70;;
51838;SDS011;37886;53.174;6.368;2022-12-18T00:22:56;203.85;;;64.30;;
51838;SDS011;37886;53.174;6.368;2022-12-18T00:25:22;208.13;;;59.00;;
51838;SDS011;37886;53.174;6.368;2022-12-18T00:27:48;201.25;;;63.25;;
51838;SDS011;37886;53.174;6.368;2022-12-18T00:30:14;194.65;;;59.30;;
51838;SDS011;37886;53.174;6.368;2022-12-18T00:32:39;201.63;;;61.95;;
51838;SDS011;37886;53.174;6.368;2022-12-18T00:35:08;186.05;;;57.80;;
51838;SDS011;37886;53.174;6.368;2022-12-18T00:37:34;179.27;;;54.28;;
51838;SDS011;37886;53.174;6.368;2022-12-18T00:39:59;176.20;;;53.42;;
51838;SDS011;37886;53.174;6.368;2022-12-18T00:42:25;209.73;;;61.80;;
51838;SDS011;37886;53.174;6.368;2022-12-18T00:45:10;187.07;;;55.33;;
51838;SDS011;37886;53.174;6.368;2022-12-18T00:47:38;176.10;;;55.67;;
51838;SDS011;37886;53.174;6.368;2022-12-18T00:50:04;198.55;;;56.10;;
51838;SDS011;37886;53.174;6.368;2022-12-18T00:52:30;171.23;;;54.75;;
51838;SDS011;37886;53.174;6.368;2022-12-18T00:54:56;182.25;;;55.47;;
51838;SDS011;37886;53.174;6.368;2022-12-18T00:57:22;162.45;;;51.75;;
51838;SDS011;37886;53.174;6.368;2022-12-18T01:03:26;180.02;;;53.40;;
51838;SDS011;37886;53.174;6.368;2022-12-18T01:05:52;183.00;;;58.75;;
51838;SDS011;37886;53.174;6.368;2022-12-18T01:08:17;164.32;;;51.88;;
51838;SDS011;37886;53.174;6.368;2022-12-18T01:10:43;159.43;;;50.08;;
51838;SDS011;37886;53.174;6.368;2022-12-18T01:13:09;162.30;;;52.30;;
51838;SDS011;37886;53.174;6.368;2022-12-18T01:15:38;204.98;;;62.33;;
51838;SDS011;37886;53.174;6.368;2022-12-18T01:18:03;174.43;;;51.72;;
51838;SDS011;37886;53.174;6.368;2022-12-18T01:20:30;178.32;;;52.97;;
51838;SDS011;37886;53.174;6.368;2022-12-18T01:22:56;163.48;;;49.17;;
51838;SDS011;37886;53.174;6.368;2022-12-18T01:25:22;169.90;;;51.00;;
51838;SDS011;37886;53.174;6.368;2022-12-18T01:27:47;160.75;;;52.10;;
51838;SDS011;37886;53.174;6.368;2022-12-18T01:30:13;166.10;;;51.53;;
51838;SDS011;37886;53.174;6.368;2022-12-18T01:32:39;164.48;;;52.45;;
51838;SDS011;37886;53.174;6.368;2022-12-18T01:35:05;174.70;;;52.47;;
51838;SDS011;37886;53.174;6.368;2022-12-18T01:37:31;180.55;;;53.42;;
51838;SDS011;37886;53.174;6.368;2022-12-18T01:39:57;173.07;;;47.92;;
51838;SDS011;37886;53.174;6.368;2022-12-18T01:42:23;148.20;;;46.88;;
51838;SDS011;37886;53.174;6.368;2022-12-18T01:50:09;173.70;;;50.78;;
51838;SDS011;37886;53.174;6.368;2022-12-18T01:52:35;170.30;;;50.03;;
51838;SDS011;37886;53.174;6.368;2022-12-18T01:55:08;168.95;;;48.72;;
51838;SDS011;37886;53.174;6.368;2022-12-18T01:57:35;143.73;;;46.92;;
51838;SDS011;37886;53.174;6.368;2022-12-18T02:00:07;149.70;;;46.05;;
51838;SDS011;37886;53.174;6.368;2022-12-18T02:02:36;160.90;;;49.95;;
51838;SDS011;37886;53.174;6.368;2022-12-18T02:05:02;143.38;;;45.40;;
51838;SDS011;37886;53.174;6.368;2022-12-18T02:07:36;163.18;;;50.83;;
51838;SDS011;37886;53.174;6.368;2022-12-18T02:10:07;168.45;;;49.42;;
51838;SDS011;37886;53.174;6.368;2022-12-18T02:15:31;164.50;;;51.28;;
51838;SDS011;37886;53.174;6.368;2022-12-18T02:18:12;162.05;;;48.90;;
51838;SDS011;37886;53.174;6.368;2022-12-18T02:20:45;150.45;;;48.75;;
51838;SDS011;37886;53.174;6.368;2022-12-18T02:28:55;165.38;;;48.78;;
51838;SDS011;37886;53.174;6.368;2022-12-18T02:31:32;152.27;;;47.53;;
51838;SDS011;37886;53.174;6.368;2022-12-18T02:34:04;142.43;;;47.00;;
51838;SDS011;37886;53.174;6.368;2022-12-18T02:36:32;157.88;;;49.40;;
51838;SDS011;37886;53.174;6.368;2022-12-18T02:39:02;140.40;;;45.13;;
51838;SDS011;37886;53.174;6.368;2022-12-18T02:41:29;147.23;;;47.88;;
51838;SDS011;37886;53.174;6.368;2022-12-18T02:43:57;166.23;;;50.03;;
51838;SDS011;37886;53.174;6.368;2022-12-18T02:49:40;153.43;;;46.78;;
51838;SDS011;37886;53.174;6.368;2022-12-18T02:52:13;157.52;;;46.15;;
51838;SDS011;37886;53.174;6.368;2022-12-18T02:54:49;165.25;;;48.70;;
51838;SDS011;37886;53.174;6.368;2022-12-18T02:57:23;188.93;;;55.00;;
51838;SDS011;37886;53.174;6.368;2022-12-18T03:05:20;185.65;;;53.80;;
51838;SDS011;37886;53.174;6.368;2022-12-18T03:07:55;176.15;;;51.72;;
51838;SDS011;37886;53.174;6.368;2022-12-18T03:10:28;175.65;;;52.83;;
51838;SDS011;37886;53.174;6.368;2022-12-18T03:13:06;173.02;;;54.75;;
51838;SDS011;37886;53.174;6.368;2022-12-18T03:15:37;179.15;;;54.35;;
51838;SDS011;37886;53.174;6.368;2022-12-18T03:18:25;159.85;;;50.97;;
51838;SDS011;37886;53.174;6.368;2022-12-18T03:20:58;161.20;;;51.90;;
51838;SDS011;37886;53.174;6.368;2022-12-18T03:23:29;166.45;;;55.65;;
51838;SDS011;37886;53.174;6.368;2022-12-18T03:26:05;193.77;;;57.65;;
51838;SDS011;37886;53.174;6.368;2022-12-18T03:28:36;184.70;;;58.80;;
51838;SDS011;37886;53.174;6.368;2022-12-18T03:31:05;156.07;;;50.25;;
51838;SDS011;37886;53.174;6.368;2022-12-18T03:33:39;130.63;;;39.90;;
51838;SDS011;37886;53.174;6.368;2022-12-18T03:36:09;173.20;;;56.80;;
51838;SDS011;37886;53.174;6.368;2022-12-18T03:38:35;174.35;;;52.30;;
51838;SDS011;37886;53.174;6.368;2022-12-18T03:43:52;153.35;;;53.35;;
51838;SDS011;37886;53.174;6.368;2022-12-18T03:46:32;169.60;;;52.90;;
51838;SDS011;37886;53.174;6.368;2022-12-18T03:49:05;172.80;;;59.63;;
51838;SDS011;37886;53.174;6.368;2022-12-18T03:51:39;154.45;;;51.90;;
51838;SDS011;37886;53.174;6.368;2022-12-18T03:54:10;134.43;;;45.80;;
51838;SDS011;37886;53.174;6.368;2022-12-18T03:56:39;152.23;;;51.85;;
51838;SDS011;37886;53.174;6.368;2022-12-18T03:59:08;150.77;;;48.50;;
51838;SDS011;37886;53.174;6.368;2022-12-18T04:01:38;142.52;;;50.30;;
51838;SDS011;37886;53.174;6.368;2022-12-18T04:04:08;140.93;;;48.83;;
51838;SDS011;37886;53.174;6.368;2022-12-18T04:06:36;140.23;;;48.55;;
51838;SDS011;37886;53.174;6.368;2022-12-18T04:09:03;131.57;;;48.10;;
51838;SDS011;37886;53.174;6.368;2022-12-18T04:11:30;137.60;;;49.20;;
51838;SDS011;37886;53.174;6.368;2022-12-18T04:13:56;137.93;;;46.28;;
51838;SDS011;37886;53.174;6.368;2022-12-18T04:16:23;138.55;;;46.40;;
51838;SDS011;37886;53.174;6.368;2022-12-18T04:18:52;140.55;;;46.25;;
51838;SDS011;37886;53.174;6.368;2022-12-18T04:21:18;142.13;;;50.17;;
51838;SDS011;37886;53.174;6.368;2022-12-18T04:23:44;123.93;;;44.92;;
51838;SDS011;37886;53.174;6.368;2022-12-18T04:26:10;128.73;;;44.83;;
51838;SDS011;37886;53.174;6.368;2022-12-18T04:28:35;122.32;;;44.05;;
51838;SDS011;37886;53.174;6.368;2022-12-18T04:31:01;118.25;;;45.60;;
51838;SDS011;37886;53.174;6.368;2022-12-18T04:33:27;108.18;;;40.28;;
51838;SDS011;37886;53.174;6.368;2022-12-18T04:35:53;114.13;;;40.92;;
51838;SDS011;37886;53.174;6.368;2022-12-18T04:38:19;119.55;;;42.58;;
51838;SDS011;37886;53.174;6.368;2022-12-18T04:40:47;113.60;;;41.00;;
51838;SDS011;37886;53.174;6.368;2022-12-18T04:43:16;101.95;;;39.75;;
51838;SDS011;37886;53.174;6.368;2022-12-18T04:45:42;102.10;;;40.53;;
51838;SDS011;37886;53.174;6.368;2022-12-18T04:48:07;110.93;;;42.03;;
51838;SDS011;37886;53.174;6.368;2022-12-18T04:50:33;104.40;;;38.90;;
51838;SDS011;37886;53.174;6.368;2022-12-18T04:52:59;107.07;;;39.38;;
51838;SDS011;37886;53.174;6.368;2022-12-18T04:55:25;94.35;;;38.05;;
51838;SDS011;37886;53.174;6.368;2022-12-18T04:57:51;104.63;;;39.00;;
51838;SDS011;37886;53.174;6.368;2022-12-18T05:00:17;102.15;;;40.75;;
51838;SDS011;37886;53.174;6.368;2022-12-18T05:02:42;115.53;;;41.10;;
51838;SDS011;37886;53.174;6.368;2022-12-18T05:05:08;113.82;;;40.90;;
51838;SDS011;37886;53.174;6.368;2022-12-18T05:07:34;101.68;;;39.17;;
51838;SDS011;37886;53.174;6.368;2022-12-18T05:10:00;112.30;;;40.17;;
51838;SDS011;37886;53.174;6.368;2022-12-18T05:12:26;100.38;;;37.50;;
51838;SDS011;37886;53.174;6.368;2022-12-18T05:14:51;95.60;;;36.85;;
51838;SDS011;37886;53.174;6.368;2022-12-18T05:17:17;98.50;;;38.35;;
51838;SDS011;37886;53.174;6.368;2022-12-18T05:19:43;108.68;;;37.10;;
51838;SDS011;37886;53.174;6.368;2022-12-18T05:22:09;113.78;;;38.42;;
51838;SDS011;37886;53.174;6.368;2022-12-18T05:24:35;104.35;;;37.85;;
51838;SDS011;37886;53.174;6.368;2022-12-18T05:27:01;113.10;;;39.40;;
51838;SDS011;37886;53.174;6.368;2022-12-18T05:29:26;102.90;;;36.58;;
51838;SDS011;37886;53.174;6.368;2022-12-18T05:31:52;102.22;;;35.88;;
51838;SDS011;37886;53.174;6.368;2022-12-18T05:34:18;94.93;;;36.45;;
51838;SDS011;37886;53.174;6.368;2022-12-18T05:36:47;101.32;;;35.03;;
51838;SDS011;37886;53.174;6.368;2022-12-18T05:39:12;108.43;;;37.20;;
51838;SDS011;37886;53.174;6.368;2022-12-18T05:41:38;106.45;;;34.25;;
51838;SDS011;37886;53.174;6.368;2022-12-18T05:44:04;106.70;;;35.42;;
51838;SDS011;37886;53.174;6.368;2022-12-18T05:46:30;99.90;;;34.67;;
51838;SDS011;37886;53.174;6.368;2022-12-18T05:49:01;101.05;;;34.90;;
51838;SDS011;37886;53.174;6.368;2022-12-18T05:51:27;98.45;;;34.25;;
51838;SDS011;37886;53.174;6.368;2022-12-18T05:53:53;96.57;;;36.05;;
51838;SDS011;37886;53.174;6.368;2022-12-18T05:56:19;98.80;;;36.28;;
51838;SDS011;37886;53.174;6.368;2022-12-18T05:58:47;96.55;;;36.60;;
51838;SDS011;37886;53.174;6.368;2022-12-18T06:01:17;100.30;;;36.10;;
51838;SDS011;37886;53.174;6.368;2022-12-18T06:03:45;86.47;;;31.83;;
51838;SDS011;37886;53.174;6.368;2022-12-18T06:06:15;119.25;;;37.92;;
51838;SDS011;37886;53.174;6.368;2022-12-18T06:08:43;121.90;;;39.50;;
51838;SDS011;37886;53.174;6.368;2022-12-18T06:11:09;104.03;;;38.00;;
51838;SDS011;37886;53.174;6.368;2022-12-18T06:13:35;115.03;;;38.58;;
51838;SDS011;37886;53.174;6.368;2022-12-18T06:16:04;100.88;;;35.25;;
51838;SDS011;37886;53.174;6.368;2022-12-18T06:18:30;101.87;;;36.50;;
51838;SDS011;37886;53.174;6.368;2022-12-18T06:20:57;105.50;;;34.38;;
51838;SDS011;37886;53.174;6.368;2022-12-18T06:23:25;109.20;;;37.80;;
51838;SDS011;37886;53.174;6.368;2022-12-18T06:25:51;105.65;;;37.97;;
51838;SDS011;37886;53.174;6.368;2022-12-18T06:28:17;103.28;;;35.55;;
51838;SDS011;37886;53.174;6.368;2022-12-18T06:30:46;110.90;;;38.40;;
51838;SDS011;37886;53.174;6.368;2022-12-18T06:33:13;96.50;;;35.85;;
51838;SDS011;37886;53.174;6.368;2022-12-18T06:35:39;102.93;;;36.17;;
51838;SDS011;37886;53.174;6.368;2022-12-18T06:38:06;92.53;;;34.10;;
51838;SDS011;37886;53.174;6.368;2022-12-18T06:40:32;84.53;;;32.47;;
51838;SDS011;37886;53.174;6.368;2022-12-18T06:42:58;90.90;;;32.30;;
51838;SDS011;37886;53.174;6.368;2022-12-18T06:45:23;94.55;;;34.63;;
51838;SDS011;37886;53.174;6.368;2022-12-18T06:47:49;97.30;;;33.42;;
51838;SDS011;37886;53.174;6.368;2022-12-18T06:50:15;88.82;;;32.33;;
51838;SDS011;37886;53.174;6.368;2022-12-18T06:52:41;88.70;;;33.50;;
51838;SDS011;37886;53.174;6.368;2022-12-18T06:55:09;88.25;;;32.95;;
51838;SDS011;37886;53.174;6.368;2022-12-18T06:57:35;89.95;;;32.03;;
51838;SDS011;37886;53.174;6.368;2022-12-18T07:00:02;89.53;;;33.30;;
51838;SDS011;37886;53.174;6.368;2022-12-18T07:02:33;82.40;;;31.42;;
51838;SDS011;37886;53.174;6.368;2022-12-18T07:05:00;92.38;;;32.92;;
51838;SDS011;37886;53.174;6.368;2022-12-18T07:07:25;88.85;;;32.22;;
51838;SDS011;37886;53.174;6.368;2022-12-18T07:09:51;83.18;;;32.33;;
51838;SDS011;37886;53.174;6.368;2022-12-18T07:12:17;91.35;;;31.90;;
51838;SDS011;37886;53.174;6.368;2022-12-18T07:14:43;85.15;;;30.13;;
51838;SDS011;37886;53.174;6.368;2022-12-18T07:17:09;87.88;;;30.17;;
51838;SDS011;37886;53.174;6.368;2022-12-18T07:19:34;77.93;;;30.13;;
51838;SDS011;37886;53.174;6.368;2022-12-18T07:22:00;78.40;;;30.77;;
51838;SDS011;37886;53.174;6.368;2022-12-18T07:24:26;75.95;;;29.55;;
51838;SDS011;37886;53.174;6.368;2022-12-18T07:26:52;81.35;;;31.13;;
51838;SDS011;37886;53.174;6.368;2022-12-18T07:29:17;78.00;;;30.30;;
51838;SDS011;37886;53.174;6.368;2022-12-18T07:31:46;70.07;;;29.42;;
51838;SDS011;37886;53.174;6.368;2022-12-18T07:34:12;69.88;;;29.00;;
51838;SDS011;37886;53.174;6.368;2022-12-18T07:36:38;69.07;;;28.75;;
51838;SDS011;37886;53.174;6.368;2022-12-18T07:39:04;69.88;;;28.50;;
51838;SDS011;37886;53.174;6.368;2022-12-18T07:41:30;69.38;;;31.05;;
51838;SDS011;37886;53.174;6.368;2022-12-18T07:43:56;70.03;;;29.20;;
51838;SDS011;37886;53.174;6.368;2022-12-18T07:46:22;76.38;;;30.60;;
51838;SDS011;37886;53.174;6.368;2022-12-18T07:48:48;66.32;;;27.80;;
51838;SDS011;37886;53.174;6.368;2022-12-18T07:51:13;74.13;;;29.20;;
51838;SDS011;37886;53.174;6.368;2022-12-18T07:53:39;70.05;;;29.77;;
51838;SDS011;37886;53.174;6.368;2022-12-18T07:56:07;70.93;;;28.10;;
51838;SDS011;37886;53.174;6.368;2022-12-18T07:58:34;71.88;;;27.80;;
51838;SDS011;37886;53.174;6.368;2022-12-18T08:01:10;70.32;;;27.60;;
51838;SDS011;37886;53.174;6.368;2022-12-18T08:03:37;65.00;;;27.33;;
51838;SDS011;37886;53.174;6.368;2022-12-18T08:06:05;57.35;;;26.88;;
51838;SDS011;37886;53.174;6.368;2022-12-18T08:08:32;63.35;;;27.80;;
51838;SDS011;37886;53.174;6.368;2022-12-18T08:11:00;61.60;;;27.58;;
51838;SDS011;37886;53.174;6.368;2022-12-18T08:13:26;59.92;;;27.15;;
51838;SDS011;37886;53.174;6.368;2022-12-18T08:15:59;71.50;;;30.17;;
51838;SDS011;37886;53.174;6.368;2022-12-18T08:18:27;61.00;;;28.05;;
51838;SDS011;37886;53.174;6.368;2022-12-18T08:20:53;52.13;;;26.25;;
51838;SDS011;37886;53.174;6.368;2022-12-18T08:23:19;52.42;;;25.63;;
51838;SDS011;37886;53.174;6.368;2022-12-18T08:25:45;55.75;;;26.00;;
51838;SDS011;37886;53.174;6.368;2022-12-18T08:28:11;59.72;;;27.83;;
51838;SDS011;37886;53.174;6.368;2022-12-18T08:30:37;56.20;;;26.58;;
51838;SDS011;37886;53.174;6.368;2022-12-18T08:33:03;53.15;;;27.90;;
51838;SDS011;37886;53.174;6.368;2022-12-18T08:35:29;54.28;;;25.90;;
51838;SDS011;37886;53.174;6.368;2022-12-18T08:37:55;56.60;;;25.17;;
51838;SDS011;37886;53.174;6.368;2022-12-18T08:40:21;55.78;;;26.00;;
51838;SDS011;37886;53.174;6.368;2022-12-18T08:42:47;48.33;;;23.95;;
51838;SDS011;37886;53.174;6.368;2022-12-18T08:45:31;52.78;;;24.63;;
51838;SDS011;37886;53.174;6.368;2022-12-18T08:47:56;51.47;;;26.23;;
51838;SDS011;37886;53.174;6.368;2022-12-18T08:50:22;51.45;;;25.17;;
51838;SDS011;37886;53.174;6.368;2022-12-18T08:52:48;56.05;;;25.45;;
51838;SDS011;37886;53.174;6.368;2022-12-18T08:55:14;55.63;;;25.25;;
51838;SDS011;37886;53.174;6.368;2022-12-18T08:57:39;47.58;;;24.48;;
51838;SDS011;37886;53.174;6.368;2022-12-18T09:00:05;50.13;;;25.30;;
51838;SDS011;37886;53.174;6.368;2022-12-18T09:02:32;49.35;;;24.55;;
51838;SDS011;37886;53.174;6.368;2022-12-18T09:05:01;48.80;;;24.80;;
51838;SDS011;37886;53.174;6.368;2022-12-18T09:07:27;43.20;;;22.38;;
51838;SDS011;37886;53.174;6.368;2022-12-18T09:09:52;47.03;;;23.35;;
51838;SDS011;37886;53.174;6.368;2022-12-18T09:12:18;52.75;;;25.50;;
51838;SDS011;37886;53.174;6.368;2022-12-18T09:14:44;49.08;;;23.92;;
51838;SDS011;37886;53.174;6.368;2022-12-18T09:17:10;49.20;;;24.70;;
51838;SDS011;37886;53.174;6.368;2022-12-18T09:19:36;45.25;;;23.45;;
51838;SDS011;37886;53.174;6.368;2022-12-18T09:22:01;47.85;;;25.02;;
51838;SDS011;37886;53.174;6.368;2022-12-18T09:24:27;47.08;;;23.90;;
51838;SDS011;37886;53.174;6.368;2022-12-18T09:26:53;45.35;;;23.63;;
51838;SDS011;37886;53.174;6.368;2022-12-18T09:29:22;44.42;;;22.95;;
51838;SDS011;37886;53.174;6.368;2022-12-18T09:31:48;43.25;;;23.40;;
51838;SDS011;37886;53.174;6.368;2022-12-18T09:34:14;42.78;;;22.65;;
51838;SDS011;37886;53.174;6.368;2022-12-18T09:36:45;41.58;;;20.88;;
51838;SDS011;37886;53.174;6.368;2022-12-18T09:39:11;42.90;;;23.70;;
51838;SDS011;37886;53.174;6.368;2022-12-18T09:41:41;41.25;;;22.70;;
51838;SDS011;37886;53.174;6.368;2022-12-18T09:44:16;42.20;;;23.33;;
51838;SDS011;37886;53.174;6.368;2022-12-18T09:46:53;41.45;;;21.98;;
51838;SDS011;37886;53.174;6.368;2022-12-18T09:49:29;39.58;;;20.85;;
51838;SDS011;37886;53.174;6.368;2022-12-18T09:51:59;40.67;;;21.55;;
51838;SDS011;37886;53.174;6.368;2022-12-18T09:54:35;43.03;;;23.73;;
51838;SDS011;37886;53.174;6.368;2022-12-18T09:57:04;39.90;;;20.65;;
51838;SDS011;37886;53.174;6.368;2022-12-18T10:02:10;32.75;;;19.02;;
51838;SDS011;37886;53.174;6.368;2022-12-18T10:05:09;34.65;;;18.42;;
51838;SDS011;37886;53.174;6.368;2022-12-18T10:07:59;39.67;;;20.83;;
51838;SDS011;37886;53.174;6.368;2022-12-18T10:15:53;40.30;;;19.50;;
51838;SDS011;37886;53.174;6.368;2022-12-18T10:21:21;37.53;;;20.98;;
51838;SDS011;37886;53.174;6.368;2022-12-18T10:27:15;39.45;;;19.90;;
51838;SDS011;37886;53.174;6.368;2022-12-18T10:29:46;43.85;;;20.30;;
51838;SDS011;37886;53.174;6.368;2022-12-18T10:32:19;41.05;;;21.23;;
51838;SDS011;37886;53.174;6.368;2022-12-18T10:34:47;41.13;;;21.27;;
51838;SDS011;37886;53.174;6.368;2022-12-18T10:37:19;40.78;;;20.95;;
51838;SDS011;37886;53.174;6.368;2022-12-18T10:39:47;39.45;;;20.08;;
51838;SDS011;37886;53.174;6.368;2022-12-18T10:42:35;32.38;;;19.15;;
51838;SDS011;37886;53.174;6.368;2022-12-18T10:45:05;38.08;;;19.60;;
51838;SDS011;37886;53.174;6.368;2022-12-18T10:47:46;35.10;;;18.42;;
51838;SDS011;37886;53.174;6.368;2022-12-18T10:50:24;32.22;;;18.05;;
51838;SDS011;37886;53.174;6.368;2022-12-18T10:52:54;31.65;;;18.05;;
51838;SDS011;37886;53.174;6.368;2022-12-18T10:55:22;30.55;;;17.83;;
51838;SDS011;37886;53.174;6.368;2022-12-18T10:57:54;28.42;;;17.38;;
51838;SDS011;37886;53.174;6.368;2022-12-18T11:00:37;30.38;;;16.45;;
51838;SDS011;37886;53.174;6.368;2022-12-18T11:03:07;31.77;;;15.80;;
51838;SDS011;37886;53.174;6.368;2022-12-18T11:06:04;25.70;;;14.40;;
51838;SDS011;37886;53.174;6.368;2022-12-18T11:08:35;25.77;;;14.35;;
51838;SDS011;37886;53.174;6.368;2022-12-18T11:11:01;26.38;;;15.23;;
51838;SDS011;37886;53.174;6.368;2022-12-18T11:13:29;31.45;;;16.65;;
51838;SDS011;37886;53.174;6.368;2022-12-18T11:15:56;30.00;;;16.40;;
51838;SDS011;37886;53.174;6.368;2022-12-18T11:18:30;29.83;;;16.23;;
51838;SDS011;37886;53.174;6.368;2022-12-18T11:21:08;25.85;;;15.00;;
51838;SDS011;37886;53.174;6.368;2022-12-18T11:23:49;29.80;;;16.30;;
51838;SDS011;37886;53.174;6.368;2022-12-18T11:26:16;27.15;;;16.20;;
51838;SDS011;37886;53.174;6.368;2022-12-18T11:33:46;26.63;;;14.55;;
51838;SDS011;37886;53.174;6.368;2022-12-18T11:36:17;28.10;;;15.18;;
51838;SDS011;37886;53.174;6.368;2022-12-18T11:38:44;27.02;;;14.63;;
51838;SDS011;37886;53.174;6.368;2022-12-18T11:44:24;26.40;;;14.30;;
51838;SDS011;37886;53.174;6.368;2022-12-18T11:47:00;23.65;;;14.23;;
51838;SDS011;37886;53.174;6.368;2022-12-18T11:49:35;24.95;;;13.75;;
51838;SDS011;37886;53.174;6.368;2022-12-18T11:52:18;20.77;;;13.07;;
51838;SDS011;37886;53.174;6.368;2022-12-18T11:54:54;23.58;;;13.20;;
51838;SDS011;37886;53.174;6.368;2022-12-18T12:00:11;19.83;;;11.55;;
51838;SDS011;37886;53.174;6.368;2022-12-18T12:13:04;20.00;;;11.77;;
51838;SDS011;37886;53.174;6.368;2022-12-18T12:15:57;15.52;;;10.50;;
51838;SDS011;37886;53.174;6.368;2022-12-18T12:40:13;14.75;;;9.32;;
51838;SDS011;37886;53.174;6.368;2022-12-18T12:42:52;18.20;;;10.40;;
51838;SDS011;37886;53.174;6.368;2022-12-18T12:45:40;19.90;;;10.63;;
51838;SDS011;37886;53.174;6.368;2022-12-18T12:51:00;16.00;;;9.18;;
51838;SDS011;37886;53.174;6.368;2022-12-18T12:53:35;15.50;;;9.30;;
51838;SDS011;37886;53.174;6.368;2022-12-18T12:56:04;15.90;;;9.63;;
51838;SDS011;37886;53.174;6.368;2022-12-18T12:58:36;14.40;;;8.85;;
51838;SDS011;37886;53.174;6.368;2022-12-18T13:01:17;15.32;;;8.85;;
51838;SDS011;37886;53.174;6.368;2022-12-18T13:04:06;15.88;;;9.15;;
51838;SDS011;37886;53.174;6.368;2022-12-18T13:09:30;14.93;;;8.77;;
51838;SDS011;37886;53.174;6.368;2022-12-18T13:14:45;14.23;;;8.52;;
51838;SDS011;37886;53.174;6.368;2022-12-18T13:19:49;16.20;;;8.80;;
51838;SDS011;37886;53.174;6.368;2022-12-18T13:22:23;17.55;;;9.85;;
51838;SDS011;37886;53.174;6.368;2022-12-18T13:25:00;15.30;;;8.57;;
51838;SDS011;37886;53.174;6.368;2022-12-18T13:27:46;16.95;;;9.25;;
51838;SDS011;37886;53.174;6.368;2022-12-18T13:33:30;14.77;;;8.70;;
51838;SDS011;37886;53.174;6.368;2022-12-18T13:38:47;15.38;;;8.30;;
51838;SDS011;37886;53.174;6.368;2022-12-18T13:41:33;12.93;;;8.05;;
51838;SDS011;37886;53.174;6.368;2022-12-18T13:50:43;15.68;;;8.65;;
51838;SDS011;37886;53.174;6.368;2022-12-18T13:53:34;15.75;;;7.80;;
51838;SDS011;37886;53.174;6.368;2022-12-18T13:56:07;15.27;;;8.40;;
51838;SDS011;37886;53.174;6.368;2022-12-18T13:58:33;14.65;;;8.77;;
51838;SDS011;37886;53.174;6.368;2022-12-18T14:00:58;15.32;;;8.77;;
51838;SDS011;37886;53.174;6.368;2022-12-18T14:03:27;14.73;;;9.13;;
51838;SDS011;37886;53.174;6.368;2022-12-18T14:05:59;17.77;;;9.18;;
51838;SDS011;37886;53.174;6.368;2022-12-18T14:08:29;18.35;;;9.98;;
51838;SDS011;37886;53.174;6.368;2022-12-18T14:10:59;17.08;;;9.65;;
51838;SDS011;37886;53.174;6.368;2022-12-18T14:13:44;18.63;;;9.13;;
51838;SDS011;37886;53.174;6.368;2022-12-18T14:16:12;14.90;;;9.20;;
51838;SDS011;37886;53.174;6.368;2022-12-18T14:21:21;14.65;;;9.07;;
51838;SDS011;37886;53.174;6.368;2022-12-18T14:24:16;13.13;;;8.38;;
51838;SDS011;37886;53.174;6.368;2022-12-18T14:26:39;16.15;;;8.55;;
51838;SDS011;37886;53.174;6.368;2022-12-18T14:29:21;12.77;;;7.53;;
51838;SDS011;37886;53.174;6.368;2022-12-18T14:34:46;20.20;;;10.55;;
51838;SDS011;37886;53.174;6.368;2022-12-18T14:37:23;14.88;;;8.75;;
51838;SDS011;37886;53.174;6.368;2022-12-18T14:39:57;13.70;;;8.25;;
51838;SDS011;37886;53.174;6.368;2022-12-18T14:42:28;20.20;;;9.65;;
51838;SDS011;37886;53.174;6.368;2022-12-18T14:47:58;11.93;;;7.68;;
51838;SDS011;37886;53.174;6.368;2022-12-18T14:50:24;13.63;;;8.10;;
51838;SDS011;37886;53.174;6.368;2022-12-18T14:52:56;15.55;;;8.43;;
51838;SDS011;37886;53.174;6.368;2022-12-18T14:55:29;14.32;;;8.38;;
51838;SDS011;37886;53.174;6.368;2022-12-18T15:04:35;12.55;;;7.72;;
51838;SDS011;37886;53.174;6.368;2022-12-18T15:09:36;13.40;;;7.90;;
51838;SDS011;37886;53.174;6.368;2022-12-18T15:12:03;12.13;;;7.88;;
51838;SDS011;37886;53.174;6.368;2022-12-18T15:16:55;13.25;;;7.78;;
51838;SDS011;37886;53.174;6.368;2022-12-18T15:19:22;11.23;;;7.57;;
51838;SDS011;37886;53.174;6.368;2022-12-18T15:22:02;12.30;;;7.57;;
51838;SDS011;37886;53.174;6.368;2022-12-18T15:24:30;14.95;;;8.38;;
51838;SDS011;37886;53.174;6.368;2022-12-18T15:26:57;13.63;;;8.23;;
51838;SDS011;37886;53.174;6.368;2022-12-18T15:29:26;12.63;;;7.93;;
51838;SDS011;37886;53.174;6.368;2022-12-18T15:31:59;12.85;;;8.55;;
51838;SDS011;37886;53.174;6.368;2022-12-18T15:34:27;14.00;;;7.97;;
51838;SDS011;37886;53.174;6.368;2022-12-18T15:36:53;12.80;;;8.07;;
51838;SDS011;37886;53.174;6.368;2022-12-18T15:39:19;14.43;;;8.73;;
51838;SDS011;37886;53.174;6.368;2022-12-18T15:41:44;13.60;;;8.88;;
51838;SDS011;37886;53.174;6.368;2022-12-18T15:44:29;14.52;;;8.85;;
51838;SDS011;37886;53.174;6.368;2022-12-18T15:46:55;17.38;;;10.48;;
51838;SDS011;37886;53.174;6.368;2022-12-18T15:49:21;15.55;;;9.85;;
51838;SDS011;37886;53.174;6.368;2022-12-18T15:51:57;17.92;;;9.07;;
51838;SDS011;37886;53.174;6.368;2022-12-18T15:54:24;18.77;;;9.75;;
51838;SDS011;37886;53.174;6.368;2022-12-18T15:57:09;17.80;;;9.70;;
51838;SDS011;37886;53.174;6.368;2022-12-18T15:59:48;20.23;;;10.77;;
51838;SDS011;37886;53.174;6.368;2022-12-18T16:04:45;21.02;;;11.10;;
51838;SDS011;37886;53.174;6.368;2022-12-18T16:07:11;16.40;;;9.98;;
51838;SDS011;37886;53.174;6.368;2022-12-18T16:09:37;16.98;;;10.50;;
51838;SDS011;37886;53.174;6.368;2022-12-18T16:12:04;18.55;;;10.40;;
51838;SDS011;37886;53.174;6.368;2022-12-18T16:14:31;17.20;;;10.93;;
51838;SDS011;37886;53.174;6.368;2022-12-18T16:17:11;18.80;;;10.40;;
51838;SDS011;37886;53.174;6.368;2022-12-18T16:19:37;19.27;;;10.85;;
51838;SDS011;37886;53.174;6.368;2022-12-18T16:22:03;24.67;;;12.05;;
51838;SDS011;37886;53.174;6.368;2022-12-18T16:24:31;18.55;;;11.55;;
51838;SDS011;37886;53.174;6.368;2022-12-18T16:26:59;16.80;;;10.98;;
51838;SDS011;37886;53.174;6.368;2022-12-18T16:29:26;18.90;;;11.48;;
51838;SDS011;37886;53.174;6.368;2022-12-18T16:31:56;16.75;;;11.05;;
51838;SDS011;37886;53.174;6.368;2022-12-18T16:34:24;21.05;;;11.02;;
51838;SDS011;37886;53.174;6.368;2022-12-18T16:37:03;17.10;;;10.85;;
51838;SDS011;37886;53.174;6.368;2022-12-18T16:39:31;18.25;;;10.77;;
51838;SDS011;37886;53.174;6.368;2022-12-18T16:41:58;18.35;;;10.93;;
51838;SDS011;37886;53.174;6.368;2022-12-18T16:44:25;20.20;;;11.57;;